createdAt,value
2023-09-10T00:01:16.645Z,64.90
2023-09-10T00:03:43.625Z,65.20
2023-09-10T00:06:10.681Z,65.20
2023-09-10T00:08:38.029Z,65.40
2023-09-10T00:11:06.707Z,65.20
2023-09-10T00:13:34.123Z,65.00
2023-09-10T00:16:01.272Z,65.00
2023-09-10T00:18:28.276Z,65.20
2023-09-10T00:20:55.472Z,65.60
2023-09-10T00:23:22.570Z,65.80
2023-09-10T00:25:49.477Z,65.80
2023-09-10T00:28:16.524Z,65.80
2023-09-10T00:30:43.444Z,65.60
2023-09-10T00:33:10.466Z,65.60
2023-09-10T00:35:37.373Z,65.70
2023-09-10T00:38:04.562Z,65.80
2023-09-10T00:40:31.972Z,65.90
2023-09-10T00:42:59.183Z,66.30
2023-09-10T00:45:26.219Z,66.30
2023-09-10T00:47:53.237Z,66.40
2023-09-10T00:50:20.934Z,66.50
2023-09-10T00:52:54.165Z,66.50
2023-09-10T00:55:22.842Z,66.40
2023-09-10T00:57:51.027Z,66.40
2023-09-10T01:00:18.864Z,66.70
2023-09-10T01:02:46.116Z,66.70
2023-09-10T01:05:13.601Z,66.70
2023-09-10T01:07:40.656Z,66.80
2023-09-10T01:10:08.919Z,66.70
2023-09-10T01:12:55.987Z,66.70
2023-09-10T01:15:38.071Z,66.70
2023-09-10T01:18:22.670Z,66.80
2023-09-10T01:21:27.469Z,67.10
2023-09-10T01:24:19.577Z,67.10
2023-09-10T01:26:55.903Z,67.10
2023-09-10T01:29:22.809Z,67.10
2023-09-10T01:31:54.012Z,67.00
2023-09-10T01:34:25.139Z,66.90
2023-09-10T01:36:57.521Z,66.90
2023-09-10T01:39:37.317Z,67.20
2023-09-10T01:42:08.784Z,67.70
2023-09-10T01:44:37.167Z,68.10
2023-09-10T01:47:04.926Z,68.30
2023-09-10T01:49:32.762Z,69.00
2023-09-10T01:51:59.859Z,69.40
2023-09-10T01:54:26.878Z,69.50
2023-09-10T01:56:53.769Z,69.70
2023-09-10T01:59:20.853Z,69.60
2023-09-10T02:01:48.272Z,69.40
2023-09-10T02:04:15.434Z,69.30
2023-09-10T02:06:42.313Z,69.20
2023-09-10T02:09:09.262Z,68.90
2023-09-10T02:11:36.434Z,68.90
2023-09-10T02:14:03.447Z,68.90
2023-09-10T02:16:30.580Z,68.80
2023-09-10T02:18:57.493Z,68.80
2023-09-10T02:21:24.346Z,68.30
2023-09-10T02:23:51.308Z,68.60
2023-09-10T02:26:18.229Z,69.00
2023-09-10T02:28:45.181Z,69.30
2023-09-10T02:31:12.033Z,69.20
2023-09-10T02:33:38.921Z,69.60
2023-09-10T02:36:06.753Z,69.50
2023-09-10T02:38:33.746Z,69.50
2023-09-10T02:41:01.016Z,69.80
2023-09-10T02:43:28.289Z,69.70
2023-09-10T02:45:55.314Z,69.60
2023-09-10T02:48:23.286Z,70.30
2023-09-10T02:50:50.173Z,70.30
2023-09-10T02:53:17.252Z,69.80
2023-09-10T02:55:44.194Z,70.40
2023-09-10T02:58:11.093Z,70.90
2023-09-10T03:00:37.990Z,70.70
2023-09-10T03:03:05.371Z,70.10
2023-09-10T03:05:35.743Z,70.10
2023-09-10T03:08:03.094Z,70.10
2023-09-10T03:10:30.027Z,70.40
2023-09-10T03:12:57.454Z,71.10
2023-09-10T03:15:24.528Z,71.30
2023-09-10T03:17:51.710Z,71.30
2023-09-10T03:20:18.683Z,71.70
2023-09-10T03:22:45.897Z,72.00
2023-09-10T03:25:12.899Z,71.50
2023-09-10T03:27:40.079Z,71.20
2023-09-10T03:30:07.982Z,71.40
2023-09-10T03:32:35.250Z,71.40
2023-09-10T03:35:04.447Z,71.10
2023-09-10T03:37:31.872Z,71.00
2023-09-10T03:39:59.012Z,71.10
2023-09-10T03:42:26.407Z,71.40
2023-09-10T03:44:53.573Z,71.40
2023-09-10T03:47:20.534Z,71.20
2023-09-10T03:49:48.192Z,71.20
2023-09-10T03:52:20.445Z,71.30
2023-09-10T03:54:48.010Z,70.70
2023-09-10T03:57:15.980Z,70.90
2023-09-10T03:59:44.016Z,70.80
2023-09-10T04:02:12.530Z,71.70
2023-09-10T04:04:40.344Z,71.80
2023-09-10T04:07:07.250Z,71.60
2023-09-10T04:09:34.173Z,72.30
2023-09-10T04:12:02.043Z,72.90
2023-09-10T04:14:29.280Z,73.30
2023-09-10T04:16:56.234Z,73.30
2023-09-10T04:19:24.160Z,73.10
2023-09-10T04:21:51.214Z,73.00
2023-09-10T04:24:18.714Z,72.40
2023-09-10T04:26:45.850Z,72.50
2023-09-10T04:29:12.866Z,72.70
2023-09-10T04:31:44.409Z,72.90
2023-09-10T04:34:12.143Z,72.60
2023-09-10T04:36:39.487Z,72.30
2023-09-10T04:39:09.891Z,72.50
2023-09-10T04:41:39.318Z,72.60
2023-09-10T04:44:08.040Z,72.50
2023-09-10T04:46:36.625Z,71.80
2023-09-10T04:49:03.635Z,72.30
2023-09-10T04:51:30.768Z,72.60
2023-09-10T04:53:58.321Z,72.00
2023-09-10T04:56:25.539Z,72.30
2023-09-10T04:58:52.550Z,73.30
2023-09-10T05:01:19.721Z,73.90
2023-09-10T05:03:46.855Z,73.50
2023-09-10T05:06:14.735Z,73.60
2023-09-10T05:08:43.383Z,73.70
2023-09-10T05:11:10.613Z,73.50
2023-09-10T05:13:37.703Z,73.90
2023-09-10T05:16:05.208Z,74.30
2023-09-10T05:18:32.625Z,74.70
2023-09-10T05:20:59.537Z,74.90
2023-09-10T05:23:30.152Z,74.90
2023-09-10T05:26:03.429Z,74.60
2023-09-10T05:28:31.353Z,74.60
2023-09-10T05:31:03.336Z,74.50
2023-09-10T05:33:30.375Z,74.50
2023-09-10T05:35:58.426Z,74.30
2023-09-10T05:38:27.215Z,74.10
2023-09-10T05:40:55.713Z,73.60
2023-09-10T05:43:22.719Z,73.20
2023-09-10T05:45:52.859Z,73.30
2023-09-10T05:48:19.925Z,72.90
2023-09-10T05:50:47.189Z,72.90
2023-09-10T05:53:14.711Z,73.00
2023-09-10T05:55:43.221Z,73.40
2023-09-10T05:58:10.361Z,73.10
2023-09-10T06:00:38.087Z,73.20
2023-09-10T06:03:08.340Z,73.40
2023-09-10T06:05:35.483Z,73.50
2023-09-10T06:08:03.265Z,73.10
2023-09-10T06:10:30.258Z,72.30
2023-09-10T06:12:57.167Z,72.40
2023-09-10T06:15:24.918Z,73.30
2023-09-10T06:17:51.861Z,73.10
2023-09-10T06:20:18.970Z,73.20
2023-09-10T06:22:45.923Z,73.80
2023-09-10T06:25:12.936Z,73.80
2023-09-10T06:27:40.050Z,73.80
2023-09-10T06:30:07.529Z,74.10
2023-09-10T06:32:34.744Z,73.90
2023-09-10T06:35:01.801Z,73.80
2023-09-10T06:37:29.066Z,74.10
2023-09-10T06:39:56.202Z,74.50
2023-09-10T06:42:23.150Z,73.70
2023-09-10T06:45:07.777Z,73.40
2023-09-10T06:47:34.770Z,73.00
2023-09-10T06:50:01.699Z,73.80
2023-09-10T06:52:28.708Z,73.10
2023-09-10T06:54:58.046Z,72.70
2023-09-10T06:57:25.188Z,73.20
2023-09-10T06:59:52.092Z,73.20
2023-09-10T07:02:19.026Z,72.90
2023-09-10T07:04:48.876Z,72.40
2023-09-10T07:07:17.140Z,71.60
2023-09-10T07:09:44.148Z,71.40
2023-09-10T07:12:11.104Z,71.50
2023-09-10T07:14:38.035Z,71.30
2023-09-10T07:17:07.023Z,70.80
2023-09-10T07:19:33.933Z,69.80
2023-09-10T07:22:00.884Z,69.30
2023-09-10T07:24:27.727Z,68.00
2023-09-10T07:26:54.708Z,69.00
2023-09-10T07:29:21.813Z,67.60
2023-09-10T07:31:49.327Z,67.40
2023-09-10T07:34:16.507Z,66.90
2023-09-10T07:36:45.327Z,67.10
2023-09-10T07:39:12.564Z,65.20
2023-09-10T07:41:39.598Z,63.50
2023-09-10T07:44:07.423Z,64.40
2023-09-10T07:46:35.465Z,64.70
2023-09-10T07:49:02.527Z,64.10
2023-09-10T07:51:29.632Z,65.10
2023-09-10T07:53:56.498Z,63.10
2023-09-10T07:56:23.506Z,63.80
2023-09-10T07:58:50.597Z,63.20
2023-09-10T08:01:17.810Z,62.30
2023-09-10T08:03:45.061Z,62.10
2023-09-10T08:06:12.004Z,61.30
2023-09-10T08:08:39.543Z,61.50
2023-09-10T08:11:06.535Z,61.90
2023-09-10T08:13:33.445Z,62.20
2023-09-10T08:16:00.368Z,61.10
2023-09-10T08:18:27.334Z,60.80
2023-09-10T08:20:55.486Z,61.00
2023-09-10T08:23:22.830Z,59.80
2023-09-10T08:25:53.702Z,59.20
2023-09-10T08:28:20.886Z,58.90
2023-09-10T08:30:47.812Z,58.80
2023-09-10T08:33:14.774Z,58.50
2023-09-10T08:35:47.282Z,58.60
2023-09-10T08:38:14.733Z,57.70
2023-09-10T08:40:59.904Z,58.80
2023-09-10T08:43:56.932Z,56.80
2023-09-10T08:46:31.305Z,57.60
2023-09-10T08:48:59.887Z,56.40
2023-09-10T08:51:27.256Z,56.80
2023-09-10T08:53:58.972Z,55.30
2023-09-10T08:56:30.089Z,54.80
2023-09-10T08:58:58.536Z,54.40
2023-09-10T09:01:25.685Z,54.40
2023-09-10T09:03:53.041Z,52.90
2023-09-10T09:06:20.434Z,53.00
2023-09-10T09:08:51.663Z,53.50
2023-09-10T09:11:19.751Z,52.00
2023-09-10T09:13:49.797Z,52.30
2023-09-10T09:16:19.286Z,52.80
2023-09-10T09:18:48.084Z,52.70
2023-09-10T09:21:20.437Z,52.50
2023-09-10T09:24:01.813Z,52.20
2023-09-10T09:26:29.301Z,52.20
2023-09-10T09:28:57.520Z,52.00
2023-09-10T09:31:25.816Z,51.20
2023-09-10T09:33:53.454Z,51.60
2023-09-10T09:36:20.440Z,51.20
2023-09-10T09:38:49.780Z,51.30
2023-09-10T09:41:18.260Z,50.40
2023-09-10T09:43:45.765Z,50.10
2023-09-10T09:46:13.107Z,49.10
2023-09-10T09:48:41.277Z,50.30
2023-09-10T09:51:08.538Z,50.20
2023-09-10T09:53:37.001Z,48.60
2023-09-10T09:56:05.937Z,48.10
2023-09-10T09:58:34.249Z,48.20
2023-09-10T10:01:01.905Z,46.40
2023-09-10T10:03:35.030Z,46.90
2023-09-10T10:06:03.166Z,46.20
2023-09-10T10:08:31.494Z,46.90
2023-09-10T10:10:59.032Z,46.40
2023-09-10T10:13:27.677Z,46.60
2023-09-10T10:15:56.042Z,46.40
2023-09-10T10:18:24.594Z,45.90
2023-09-10T10:20:51.977Z,45.40
2023-09-10T10:23:26.194Z,45.10
2023-09-10T10:25:55.315Z,46.00
2023-09-10T10:28:22.864Z,44.70
2023-09-10T10:31:04.168Z,44.60
2023-09-10T10:33:32.102Z,43.70
2023-09-10T10:36:23.649Z,43.80
2023-09-10T10:38:54.850Z,45.40
2023-09-10T10:41:26.756Z,43.20
2023-09-10T10:44:12.666Z,43.30
2023-09-10T10:46:43.443Z,41.30
2023-09-10T10:49:11.373Z,41.50
2023-09-10T10:51:56.168Z,42.00
2023-09-10T10:54:24.845Z,42.10
2023-09-10T10:56:52.557Z,43.90
2023-09-10T10:59:20.447Z,42.30
2023-09-10T11:02:22.995Z,41.50
2023-09-10T11:05:05.028Z,41.40
2023-09-10T11:07:33.462Z,40.80
2023-09-10T11:10:20.974Z,39.70
2023-09-10T11:13:10.305Z,40.30
2023-09-10T11:15:57.408Z,37.10
2023-09-10T11:18:36.570Z,37.00
2023-09-10T11:21:04.372Z,39.70
2023-09-10T11:23:32.538Z,40.40
2023-09-10T11:26:22.712Z,40.10
2023-09-10T11:28:51.815Z,40.40
2023-09-10T11:31:40.167Z,40.80
2023-09-10T11:34:19.574Z,40.40
2023-09-10T11:37:00.724Z,40.50
2023-09-10T11:39:28.033Z,39.70
2023-09-10T11:41:57.142Z,39.60
2023-09-10T11:44:24.309Z,39.30
2023-09-10T11:46:55.089Z,40.00
2023-09-10T11:49:23.382Z,39.10
2023-09-10T11:51:52.926Z,39.10
2023-09-10T11:54:21.204Z,39.10
2023-09-10T11:56:53.004Z,39.30
2023-09-10T11:59:24.670Z,38.90
2023-09-10T12:01:54.434Z,39.30
2023-09-10T12:04:26.992Z,38.90
2023-09-10T12:06:53.980Z,38.10
2023-09-10T12:09:21.012Z,39.00
2023-09-10T12:11:49.932Z,39.20
2023-09-10T12:14:17.082Z,38.90
2023-09-10T12:16:44.203Z,39.40
2023-09-10T12:19:11.283Z,39.70
2023-09-10T12:21:41.082Z,38.90
2023-09-10T12:24:08.586Z,38.40
2023-09-10T12:26:35.580Z,38.30
2023-09-10T12:29:02.678Z,39.40
2023-09-10T12:31:31.136Z,38.40
2023-09-10T12:33:58.179Z,39.50
2023-09-10T12:36:25.720Z,38.20
2023-09-10T12:38:52.704Z,39.20
2023-09-10T12:41:20.106Z,37.50
2023-09-10T12:43:47.323Z,37.70
2023-09-10T12:46:14.714Z,39.10
2023-09-10T12:48:42.198Z,39.10
2023-09-10T12:51:09.405Z,38.30
2023-09-10T12:53:36.659Z,39.30
2023-09-10T12:56:04.034Z,38.80
2023-09-10T12:58:31.730Z,38.10
2023-09-10T13:00:59.806Z,38.70
2023-09-10T13:03:29.733Z,37.80
2023-09-10T13:05:57.513Z,37.00
2023-09-10T13:08:24.601Z,38.00
2023-09-10T13:10:51.640Z,38.40
2023-09-10T13:13:18.648Z,37.00
2023-09-10T13:15:45.548Z,37.60
2023-09-10T13:18:12.665Z,37.60
2023-09-10T13:20:40.614Z,38.10
2023-09-10T13:23:07.681Z,36.40
2023-09-10T13:25:34.724Z,35.60
2023-09-10T13:28:01.554Z,35.70
2023-09-10T13:30:28.487Z,36.50
2023-09-10T13:32:55.498Z,35.30
2023-09-10T13:35:24.959Z,35.90
2023-09-10T13:37:52.050Z,35.40
2023-09-10T13:40:19.183Z,36.20
2023-09-10T13:42:46.061Z,36.40
2023-09-10T13:45:13.037Z,36.30
2023-09-10T13:47:40.221Z,35.90
2023-09-10T13:50:08.085Z,35.70
2023-09-10T13:52:35.047Z,35.80
2023-09-10T13:55:02.284Z,35.20
2023-09-10T13:57:29.189Z,36.10
2023-09-10T13:59:56.460Z,36.50
2023-09-10T14:02:23.461Z,36.30
2023-09-10T14:04:50.686Z,35.70
2023-09-10T14:07:17.629Z,36.40
2023-09-10T14:09:44.900Z,36.20
2023-09-10T14:12:11.957Z,36.30
2023-09-10T14:14:38.952Z,35.50
2023-09-10T14:17:05.992Z,35.40
2023-09-10T14:19:33.167Z,35.10
2023-09-10T14:22:00.101Z,36.20
2023-09-10T14:24:29.867Z,36.00
2023-09-10T14:26:57.719Z,36.40
2023-09-10T14:29:25.618Z,36.20
2023-09-10T14:32:00.055Z,36.40
2023-09-10T14:34:27.045Z,35.10
2023-09-10T14:36:53.872Z,36.50
2023-09-10T14:39:20.763Z,35.80
2023-09-10T14:41:47.680Z,34.70
2023-09-10T14:44:14.590Z,36.00
2023-09-10T14:46:41.636Z,36.00
2023-09-10T14:49:08.817Z,36.20
2023-09-10T14:51:35.813Z,36.00
2023-09-10T14:54:03.259Z,35.10
2023-09-10T14:56:30.278Z,35.00
2023-09-10T14:58:57.289Z,34.80
2023-09-10T15:01:24.447Z,34.30
2023-09-10T15:03:51.377Z,34.10
2023-09-10T15:06:18.412Z,35.20
2023-09-10T15:08:45.577Z,35.00
2023-09-10T15:11:12.581Z,34.30
2023-09-10T15:13:39.689Z,34.50
2023-09-10T15:16:07.000Z,35.10
2023-09-10T15:18:33.997Z,35.70
2023-09-10T15:21:02.397Z,34.70
2023-09-10T15:23:29.834Z,34.30
2023-09-10T15:25:56.758Z,34.30
2023-09-10T15:28:23.682Z,34.20
2023-09-10T15:30:50.673Z,34.80
2023-09-10T15:33:17.652Z,35.20
2023-09-10T15:35:44.636Z,36.20
2023-09-10T15:38:11.542Z,36.00
2023-09-10T15:40:41.540Z,35.70
2023-09-10T15:43:08.852Z,36.50
2023-09-10T15:45:39.695Z,36.20
2023-09-10T15:48:06.899Z,35.10
2023-09-10T15:50:36.785Z,35.80
2023-09-10T15:53:04.350Z,36.10
2023-09-10T15:55:31.258Z,36.50
2023-09-10T15:57:58.381Z,36.70
2023-09-10T16:00:25.402Z,36.40
2023-09-10T16:02:53.147Z,36.20
2023-09-10T16:05:20.156Z,36.00
2023-09-10T16:07:47.442Z,36.90
2023-09-10T16:10:14.480Z,37.40
2023-09-10T16:12:41.585Z,37.70
2023-09-10T16:15:09.140Z,37.90
2023-09-10T16:17:36.075Z,37.70
2023-09-10T16:20:03.231Z,37.80
2023-09-10T16:22:32.445Z,38.50
2023-09-10T16:24:59.597Z,38.40
2023-09-10T16:27:26.538Z,38.20
2023-09-10T16:29:53.484Z,38.30
2023-09-10T16:32:20.411Z,38.80
2023-09-10T16:34:47.399Z,39.20
2023-09-10T16:37:14.370Z,39.50
2023-09-10T16:39:41.441Z,40.00
2023-09-10T16:42:08.438Z,40.20
2023-09-10T16:44:35.407Z,40.00
2023-09-10T16:47:02.353Z,39.80
2023-09-10T16:49:29.290Z,40.00
2023-09-10T16:51:56.266Z,40.60
2023-09-10T16:54:23.201Z,40.90
2023-09-10T16:56:50.073Z,41.50
2023-09-10T16:59:17.161Z,41.70
2023-09-10T17:01:44.241Z,41.40
2023-09-10T17:04:11.852Z,42.00
2023-09-10T17:06:39.430Z,42.90
2023-09-10T17:09:06.620Z,43.70
2023-09-10T17:11:33.566Z,44.40
2023-09-10T17:14:00.519Z,44.60
2023-09-10T17:16:28.275Z,44.90
2023-09-10T17:18:55.682Z,44.90
2023-09-10T17:21:25.329Z,45.60
2023-09-10T17:23:52.528Z,45.90
2023-09-10T17:26:20.275Z,45.20
2023-09-10T17:28:48.154Z,45.80
2023-09-10T17:31:17.244Z,46.40
2023-09-10T17:33:45.181Z,46.90
2023-09-10T17:36:12.561Z,46.90
2023-09-10T17:38:40.410Z,47.40
2023-09-10T17:41:07.391Z,46.70
2023-09-10T17:43:34.415Z,46.90
2023-09-10T17:46:01.294Z,47.20
2023-09-10T17:48:28.344Z,47.00
2023-09-10T17:50:55.518Z,47.30
2023-09-10T17:53:22.357Z,47.10
2023-09-10T17:55:49.311Z,47.10
2023-09-10T17:58:16.255Z,47.10
2023-09-10T18:00:43.160Z,47.20
2023-09-10T18:03:13.382Z,47.50
2023-09-10T18:05:40.574Z,47.60
2023-09-10T18:08:07.829Z,47.90
2023-09-10T18:10:34.809Z,48.10
2023-09-10T18:13:01.776Z,48.80
2023-09-10T18:15:29.027Z,48.80
2023-09-10T18:17:56.971Z,48.90
2023-09-10T18:20:24.234Z,49.50
2023-09-10T18:22:51.099Z,49.60
2023-09-10T18:25:18.141Z,49.50
2023-09-10T18:27:45.094Z,49.20
2023-09-10T18:30:13.626Z,49.50
2023-09-10T18:32:40.993Z,49.70
2023-09-10T18:35:08.523Z,49.40
2023-09-10T18:37:36.026Z,49.80
2023-09-10T18:40:04.738Z,50.40
2023-09-10T18:42:31.791Z,50.90
2023-09-10T18:44:58.664Z,51.50
2023-09-10T18:47:25.594Z,52.20
2023-09-10T18:49:52.563Z,52.50
2023-09-10T18:52:19.470Z,52.10
2023-09-10T18:54:46.367Z,52.20
2023-09-10T18:57:14.801Z,52.20
2023-09-10T18:59:42.859Z,52.00
2023-09-10T19:02:10.012Z,51.40
2023-09-10T19:04:38.006Z,51.60
2023-09-10T19:07:05.950Z,51.90
2023-09-10T19:09:32.928Z,52.70
2023-09-10T19:11:59.873Z,53.30
2023-09-10T19:14:26.832Z,53.50
2023-09-10T19:16:53.804Z,53.90
2023-09-10T19:19:20.787Z,54.40
2023-09-10T19:21:47.998Z,54.80
2023-09-10T19:24:15.169Z,54.70
2023-09-10T19:26:42.471Z,55.10
2023-09-10T19:29:09.764Z,55.40
2023-09-10T19:31:36.967Z,55.50
2023-09-10T19:34:05.062Z,55.70
2023-09-10T19:36:36.059Z,56.10
2023-09-10T19:39:08.180Z,56.00
2023-09-10T19:41:35.895Z,56.40
2023-09-10T19:44:05.893Z,56.80
2023-09-10T19:46:32.959Z,57.20
2023-09-10T19:48:59.998Z,57.20
2023-09-10T19:51:27.104Z,57.20
2023-09-10T19:53:54.229Z,57.20
2023-09-10T19:56:22.932Z,57.70
2023-09-10T19:59:09.850Z,57.90
2023-09-10T20:01:39.699Z,57.70
2023-09-10T20:04:07.070Z,57.80
2023-09-10T20:06:37.405Z,57.90
2023-09-10T20:09:05.221Z,58.20
2023-09-10T20:11:32.631Z,58.60
2023-09-10T20:13:59.996Z,58.90
2023-09-10T20:16:27.392Z,58.80
2023-09-10T20:18:55.382Z,59.20
2023-09-10T20:21:23.133Z,59.30
2023-09-10T20:23:50.249Z,59.20
2023-09-10T20:26:17.302Z,59.40
2023-09-10T20:28:44.229Z,59.50
2023-09-10T20:31:11.401Z,59.50
2023-09-10T20:33:38.684Z,59.50
2023-09-10T20:36:08.665Z,59.50
2023-09-10T20:38:36.001Z,59.30
2023-09-10T20:41:11.964Z,59.30
2023-09-10T20:43:39.541Z,59.40
2023-09-10T20:46:07.060Z,59.40
2023-09-10T20:48:34.108Z,59.30
2023-09-10T20:51:06.543Z,59.00
2023-09-10T20:53:34.326Z,58.90
2023-09-10T20:56:01.569Z,58.80
2023-09-10T20:58:28.756Z,59.00
2023-09-10T21:00:55.844Z,59.10
2023-09-10T21:03:29.119Z,59.10
2023-09-10T21:06:00.313Z,59.10
2023-09-10T21:08:28.188Z,59.30
2023-09-10T21:10:55.578Z,59.10
2023-09-10T21:13:22.536Z,59.70
2023-09-10T21:15:49.860Z,59.90
2023-09-10T21:18:17.917Z,60.30
2023-09-10T21:20:45.105Z,60.50
2023-09-10T21:23:12.097Z,60.80
2023-09-10T21:25:41.776Z,61.30
2023-09-10T21:28:10.085Z,61.60
2023-09-10T21:30:37.220Z,61.90
2023-09-10T21:33:05.691Z,61.90
2023-09-10T21:35:32.781Z,61.90
2023-09-10T21:37:59.768Z,62.00
2023-09-10T21:40:26.653Z,62.10
2023-09-10T21:42:53.808Z,62.00
2023-09-10T21:45:20.657Z,61.50
2023-09-10T21:47:47.800Z,61.40
2023-09-10T21:50:14.862Z,61.50
2023-09-10T21:52:41.816Z,61.40
2023-09-10T21:55:09.160Z,61.60
2023-09-10T21:57:36.084Z,61.20
2023-09-10T22:00:04.954Z,61.10
2023-09-10T22:02:32.401Z,61.00
2023-09-10T22:05:00.013Z,61.00
2023-09-10T22:07:26.983Z,60.40
2023-09-10T22:09:57.008Z,60.10
2023-09-10T22:12:24.014Z,60.20
2023-09-10T22:14:54.500Z,60.00
2023-09-10T22:17:21.638Z,59.90
2023-09-10T22:19:48.663Z,59.40
2023-09-10T22:22:15.559Z,59.20
2023-09-10T22:24:42.456Z,59.10
2023-09-10T22:27:09.461Z,58.70
2023-09-10T22:29:36.476Z,58.70
2023-09-10T22:32:03.531Z,58.70
2023-09-10T22:34:31.475Z,58.50
2023-09-10T22:36:58.367Z,58.30
2023-09-10T22:39:25.483Z,58.20
2023-09-10T22:41:52.418Z,57.60
2023-09-10T22:44:19.406Z,57.60
2023-09-10T22:46:46.308Z,57.50
2023-09-10T22:49:13.251Z,57.30
2023-09-10T22:51:40.174Z,57.10
2023-09-10T22:54:07.201Z,57.00
2023-09-10T22:56:34.171Z,57.10
2023-09-10T22:59:01.240Z,57.10
2023-09-10T23:01:29.423Z,57.00
2023-09-10T23:03:56.454Z,57.20
2023-09-10T23:06:23.648Z,57.10
2023-09-10T23:08:50.562Z,57.10
2023-09-10T23:11:17.525Z,57.10
2023-09-10T23:13:44.532Z,57.30
2023-09-10T23:16:11.695Z,57.10
2023-09-10T23:18:38.925Z,57.10
2023-09-10T23:21:06.082Z,58.90
2023-09-10T23:23:33.018Z,59.10
2023-09-10T23:26:02.414Z,58.80
2023-09-10T23:28:30.495Z,59.10
2023-09-10T23:30:57.522Z,59.40
2023-09-10T23:33:24.496Z,60.20
2023-09-10T23:35:53.002Z,61.00
2023-09-10T23:38:20.214Z,61.20
2023-09-10T23:40:57.377Z,61.40
2023-09-10T23:43:24.653Z,61.30
2023-09-10T23:45:51.996Z,61.60
2023-09-10T23:48:19.248Z,62.10
2023-09-10T23:50:47.013Z,62.30
2023-09-10T23:53:14.079Z,62.80
2023-09-10T23:55:40.976Z,63.10
2023-09-10T23:58:08.444Z,63.40
